Buttonwillow, CA

11:14 PM PDT on April 26, 2017 (GMT -0700)
Pflugh Farms | | Change Station
Active Advisory: Wind Advisory

Elev 322 ft 35.42 °N, 119.30 °W | Updated 12 seconds ago

Mostly Cloudy
Mostly Cloudy
65.8 °F
Feels Like 65.8 °F
N
0.0
Wind Variable Wind from WNW
Gusts 0.0 mph

Today
High -- | Low -- °F
--% Chance of Precip.
Yesterday
High -- | Low -- °F
Precip. -- in
Pressure 29.95 in
Visibility 10.0 miles
Clouds Few 5500 ft
Dew Point 60 °F
Humidity 82%
Rainfall 0.00 in
Snow Depth Not available.
6:11 AM 7:40 PM
New Moon, 1% visible
METAR KBFL 270554Z 33007KT 10SM FEW055 18/12 A2996 RMK AO2 SLP140 T01780122 10250 20178 51015
Pressure 29.95 in
Visibility 10.0 miles
Clouds Few 5500 ft
Dew Point 60 °F
Humidity 82%
Rainfall 0.00 in
Snow Depth Not available.
6:11 AM 7:40 PM
New Moon, 1% visible
METAR KBFL 270554Z 33007KT 10SM FEW055 18/12 A2996 RMK AO2 SLP140 T01780122 10250 20178 51015

Get Your Daily Forecast Email!

Thanks for signing up!

Be on the lookout for a verification email in your inbox.

You'll start receiving severe weather alerts in your inbox..

×

10-Day Weather Forecast

Almanac

Astronomy

Apr. 26, 2017 Rise Set
Actual Time
Civil Twilight
Nautical Twilight
Astronomical Twilight
Moon
Length of Visible Light
Length of Day
Tomorrow will be .
, % of the Moon is Illuminated

Today's Extremes

State Highs State Lows

Community

WunderPhotos

WunderBlog® & News

Nearby

Air Quality

  Air Quality AQ Index Pollutant
Not available.

Snow Depth

Station Depth Elevation

Earthquake Activity

City Distance Mag. Time & Date
Minimum magnitude displayed is 2.5.

Coastal Water Temperatures

Place Temperature

Stations

Nearby Weather Stations

Station Location Temp. Windchill Dew Point Humidity Wind Precip. Elev Updated Type
                   

Watches & Warnings

Wind Advisory
Issued: 7:03 PM PDT Apr. 26, 2017 – National Weather Service

... Wind Advisory remains in effect until 5 am PDT Thursday...

* winds... northwest 25 to 35 mph with gusts up to 55 mph.

* Timing... winds will be strong and gusty through the night.

* Impacts... strong winds may blow down limbs, trees, and power
lines. Scattered power outages are expected.

Precautionary/preparedness actions...

A Wind Advisory means that wind gusts of 45 mph or greater are
expected. Winds this strong can make driving difficult,
especially for high profile vehicles. Use extra caution.